Time;durP1;ratioP1;P1;durP2;ratioP2;P2;SDS_P1;SDS_P2;PMS_P1;PMS_P2;Temp;Humidity;BMP_temperature;BMP_pressure;BME280_temperature;BME280_humidity;BME280_pressure;Samples;Min_cycle;Max_cycle;Signal;HPM_P1;HPM_P2
2023/03/23 00:00:54;;;;;;;2.00;1.10;;;12.80;97.20;;;12.54;61.07;96674.84;5008181;28;21487;-40
2023/03/23 00:03:21;;;;;;;1.20;0.85;;;12.90;97.10;;;12.56;60.99;96683.53;5006461;28;20552;-41
2023/03/23 00:05:51;;;;;;;3.42;1.27;;;12.90;97.10;;;12.58;60.71;96681.69;5004238;28;20240;-40
2023/03/23 00:08:22;;;;;;;2.38;1.10;;;12.90;97.00;;;12.57;61.75;96675.53;5006299;28;20072;-40
2023/03/23 00:10:56;;;;;;;4.88;0.80;;;12.90;97.10;;;12.55;61.65;96671.28;5011850;28;20156;-40
2023/03/23 00:13:25;;;;;;;1.50;1.05;;;12.90;97.30;;;12.51;62.06;96669.75;5011487;28;20121;-40
2023/03/23 00:15:52;;;;;;;2.05;1.23;;;12.90;97.50;;;12.49;61.82;96667.19;5002108;28;20042;-40
2023/03/23 00:18:22;;;;;;;1.38;0.85;;;12.90;97.40;;;12.52;61.98;96660.84;4979570;28;20030;-41
2023/03/23 00:20:54;;;;;;;1.90;1.13;;;12.90;97.40;;;12.54;61.74;96664.25;5008309;28;20040;-40
2023/03/23 00:23:23;;;;;;;1.02;0.75;;;12.90;97.30;;;12.51;62.50;96667.94;5006832;28;20363;-40
2023/03/23 00:25:57;;;;;;;1.38;0.85;;;12.90;97.60;;;12.52;62.54;96663.50;5011029;28;20088;-40
2023/03/23 00:28:26;;;;;;;1.35;1.10;;;12.90;97.70;;;12.47;64.00;96658.50;5008511;28;20045;-42
2023/03/23 00:30:59;;;;;;;2.25;1.05;;;12.80;97.90;;;12.46;64.05;96655.94;5008883;28;20033;-40
2023/03/23 00:33:28;;;;;;;1.85;1.25;;;12.80;98.10;;;12.40;65.30;96650.03;5012771;28;20037;-40
2023/03/23 00:35:54;;;;;;;1.23;0.82;;;12.80;98.40;;;12.39;65.32;96648.31;5010221;28;20063;-40
2023/03/23 00:38:24;;;;;;;2.47;1.00;;;12.80;98.40;;;12.43;64.32;96651.66;5009548;28;20033;-39
2023/03/23 00:40:50;;;;;;;2.10;0.90;;;12.80;98.20;;;12.44;64.22;96642.78;5014396;28;20262;-40
2023/03/23 00:43:18;;;;;;;1.63;1.05;;;12.80;98.20;;;12.44;65.81;96639.31;5011232;28;20037;-39
2023/03/23 00:45:52;;;;;;;1.25;1.00;;;12.80;98.50;;;12.41;65.08;96635.88;5004468;28;20436;-40
2023/03/23 00:48:23;;;;;;;2.08;1.10;;;12.80;98.40;;;12.46;64.42;96634.78;5012614;28;20036;-40
2023/03/23 00:50:49;;;;;;;1.90;1.10;;;12.80;98.20;;;12.46;64.41;96630.31;5011246;28;20036;-40
2023/03/23 00:53:16;;;;;;;1.77;1.15;;;12.80;98.20;;;12.47;64.46;96632.03;4998026;28;20061;-40
2023/03/23 00:55:43;;;;;;;2.17;0.93;;;12.80;98.30;;;12.49;64.48;96637.22;5018455;28;20069;-40
2023/03/23 00:58:10;;;;;;;1.02;0.95;;;12.80;98.30;;;12.45;65.75;96628.59;5017252;28;20026;-40
2023/03/23 01:00:36;;;;;;;2.53;0.80;;;12.80;98.60;;;12.43;65.75;96627.00;5017553;28;20037;-40
2023/03/23 01:03:02;;;;;;;2.10;1.00;;;12.80;98.60;;;12.25;65.33;96602.47;5019490;28;20033;-41
2023/03/23 01:05:31;;;;;;;2.13;0.80;;;12.80;98.50;;;12.33;66.28;96605.53;5015001;28;20061;-40
2023/03/23 01:07:58;;;;;;;2.65;1.10;;;12.80;98.50;;;12.35;66.98;96615.06;5016222;28;20881;-40
2023/03/23 01:10:26;;;;;;;1.95;1.20;;;12.70;99.00;;;12.29;68.08;96628.66;5020028;28;20489;-40
2023/03/23 01:12:52;;;;;;;1.23;1.00;;;12.70;99.10;;;12.24;66.92;96614.84;5020949;28;20908;-40
2023/03/23 01:15:19;;;;;;;2.47;1.05;;;12.60;98.80;;;12.20;66.76;96615.91;5010524;28;20051;-40
2023/03/23 01:17:45;;;;;;;2.13;1.10;;;12.60;98.80;;;12.17;66.45;96616.13;5016597;28;20029;-40
2023/03/23 01:20:14;;;;;;;1.35;0.90;;;12.50;98.80;;;12.13;66.82;96622.50;5016123;28;20374;-40
2023/03/23 01:22:42;;;;;;;2.70;1.13;;;12.50;98.90;;;12.04;67.08;96610.63;5014811;28;20084;-40
2023/03/23 01:25:10;;;;;;;2.00;1.10;;;12.50;99.00;;;12.05;67.51;96615.00;5011567;28;20126;-40
2023/03/23 01:27:37;;;;;;;2.35;1.30;;;12.40;99.10;;;12.02;67.30;96601.94;5010815;28;20218;-40
2023/03/23 01:30:05;;;;;;;1.52;1.20;;;12.40;99.10;;;11.80;68.52;96573.19;5010494;28;20044;-40
2023/03/23 01:32:31;;;;;;;2.05;1.00;;;12.40;99.40;;;11.93;69.42;96597.16;5015856;28;20029;-40
2023/03/23 01:34:58;;;;;;;2.60;1.17;;;12.30;99.50;;;11.92;68.57;96593.69;5014080;28;21486;-41
2023/03/23 01:37:26;;;;;;;2.85;1.20;;;12.30;99.40;;;11.83;68.71;96579.16;5000810;28;20386;-41
2023/03/23 01:39:54;;;;;;;1.20;1.08;;;12.30;99.40;;;11.85;69.31;96581.72;5012602;28;20030;-40
2023/03/23 01:42:32;;;;;;;2.22;1.20;;;12.20;99.60;;;11.80;70.06;96576.66;5016148;28;20041;-41
2023/03/23 01:45:31;;;;;;;1.77;1.10;;;12.20;99.70;;;11.75;70.51;96576.06;5013075;28;21435;-40
2023/03/23 01:48:15;;;;;;;2.13;1.20;;;12.10;99.90;;;11.72;70.46;96578.03;5011496;28;21809;-40
2023/03/23 01:50:54;;;;;;;1.58;1.25;;;12.10;99.80;;;11.65;70.60;96581.00;5012715;28;20038;-40
2023/03/23 01:53:20;;;;;;;2.53;1.25;;;12.00;99.90;;;11.55;71.40;96568.38;5014421;28;20025;-40
2023/03/23 01:55:50;;;;;;;3.40;1.27;;;12.00;99.90;;;11.54;71.87;96577.25;4993939;28;20473;-40
2023/03/23 01:58:19;;;;;;;1.42;1.17;;;11.90;99.90;;;11.50;71.65;96576.53;4994035;28;20108;-40
2023/03/23 02:00:45;;;;;;;2.25;1.10;;;11.90;99.90;;;11.48;71.98;96581.06;4991251;28;20037;-41
2023/03/23 02:03:13;;;;;;;1.38;0.93;;;11.90;99.90;;;11.46;71.27;96572.38;5010800;28;20040;-41
2023/03/23 02:05:43;;;;;;;2.38;1.27;;;11.90;99.90;;;11.51;70.60;96580.91;5010533;23;20143;-54
2023/03/23 02:08:10;;;;;;;1.90;1.13;;;11.90;99.90;;;11.53;71.02;96576.38;5029079;28;20082;-54
2023/03/23 02:10:37;;;;;;;1.77;0.80;;;11.90;99.90;;;11.48;71.51;96567.00;5018470;28;20252;-53
2023/03/23 02:13:07;;;;;;;3.53;1.35;;;11.90;99.90;;;11.51;73.32;96574.78;5032921;28;20498;-54
2023/03/23 02:16:06;;;;;;;2.15;1.23;;;11.90;99.90;;;11.50;70.17;96571.25;5010002;28;20038;-54
2023/03/23 02:19:01;;;;;;;3.80;1.40;;;11.90;99.90;;;11.54;69.66;96564.91;5014707;28;20408;-54
2023/03/23 02:22:15;;;;;;;1.50;0.80;;;11.90;99.80;;;11.57;69.27;96564.72;5019890;28;20423;-54
2023/03/23 02:25:11;;;;;;;5.13;1.40;;;11.90;99.70;;;11.59;70.17;96576.06;4985905;28;20108;-55
2023/03/23 02:27:55;;;;;;;2.08;1.20;;;12.00;99.80;;;11.59;70.76;96569.91;4987896;28;21717;-54
2023/03/23 02:30:32;;;;;;;2.80;1.27;;;12.00;99.90;;;11.58;70.82;96569.06;5012858;28;20029;-55
2023/03/23 02:33:33;;;;;;;2.33;1.23;;;12.00;99.90;;;11.61;71.24;96560.13;4993451;28;20757;-55
2023/03/23 02:36:22;;;;;;;2.83;1.42;;;12.00;99.90;;;11.61;71.43;96558.34;5014609;28;20044;-53
2023/03/23 02:39:13;;;;;;;3.03;1.10;;;12.00;99.90;;;11.61;73.81;96546.91;5010119;28;20329;-55
2023/03/23 02:41:54;;;;;;;3.40;1.20;;;12.00;99.90;;;11.58;73.06;96536.53;5013271;28;20055;-55
2023/03/23 02:44:22;;;;;;;1.58;1.20;;;12.00;99.90;;;11.52;75.53;96523.66;4995396;28;20124;-55
2023/03/23 02:46:49;;;;;;;3.83;1.30;;;11.90;99.90;;;11.48;74.08;96530.91;5008916;28;20021;-55
2023/03/23 02:49:16;;;;;;;1.88;1.20;;;11.90;99.90;;;11.48;74.19;96537.97;5000726;28;20021;-55
2023/03/23 02:51:46;;;;;;;3.70;1.50;;;11.90;99.90;;;11.46;74.51;96528.34;5012261;28;20080;-55
2023/03/23 02:54:13;;;;;;;2.33;1.15;;;11.80;99.90;;;11.43;75.43;96528.53;5008794;28;20750;-55
2023/03/23 02:56:40;;;;;;;1.42;1.02;;;11.80;99.90;;;11.34;77.07;96512.31;5010437;28;20033;-55
2023/03/23 02:59:05;;;;;;;1.25;1.00;;;11.80;99.90;;;11.36;78.62;96519.22;5016527;28;20120;-54
2023/03/23 03:01:35;;;;;;;1.95;1.10;;;11.70;99.90;;;11.35;77.92;96516.69;5013157;28;20033;-55
2023/03/23 03:04:06;;;;;;;1.85;1.00;;;11.70;99.90;;;11.35;77.16;96509.59;5007192;28;20351;-55
2023/03/23 03:06:48;;;;;;;2.15;1.20;;;11.70;99.90;;;11.38;77.47;96514.72;5016503;28;20025;-55
2023/03/23 03:09:41;;;;;;;1.65;0.80;;;11.80;99.90;;;11.43;77.44;96511.81;4992404;28;20048;-55
2023/03/23 03:12:34;;;;;;;1.20;0.82;;;11.80;99.90;;;11.49;76.79;96506.22;5012374;28;20029;-55
2023/03/23 03:15:11;;;;;;;;;;;11.90;99.90;;;11.51;77.31;96501.69;4992696;28;20215;-55
2023/03/23 03:17:44;;;;;;;2.15;1.23;;;11.90;99.90;;;11.59;74.52;96495.97;4989604;28;19924;-56
2023/03/23 03:20:13;;;;;;;3.67;1.27;;;12.00;99.90;;;11.59;74.15;96504.78;5011221;28;20351;-55
2023/03/23 03:22:59;;;;;;;1.65;1.10;;;12.00;99.90;;;11.71;73.16;96512.94;4992888;28;20056;-56
2023/03/23 03:25:27;;;;;;;2.15;1.10;;;12.10;99.90;;;11.77;72.61;96512.59;4986710;28;20475;-55
2023/03/23 03:27:53;;;;;;;2.05;1.20;;;12.10;99.90;;;11.82;72.46;96514.03;4991718;28;20124;-56
2023/03/23 03:30:26;;;;;;;2.15;1.30;;;12.20;99.90;;;11.84;71.94;96511.31;5008076;28;20164;-56
2023/03/23 03:32:53;;;;;;;2.50;1.10;;;12.20;99.90;;;11.94;69.02;96514.34;4991214;28;20043;-56
2023/03/23 03:35:24;;;;;;;1.90;1.10;;;12.30;99.90;;;11.96;71.12;96515.09;4986725;28;20411;-56
2023/03/23 03:37:50;;;;;;;1.33;1.10;;;12.30;99.90;;;11.99;69.17;96512.28;4992184;28;20473;-56
2023/03/23 03:40:20;;;;;;;2.95;1.50;;;12.40;99.90;;;12.02;70.19;96517.38;4991347;28;20037;-56
2023/03/23 03:42:46;;;;;;;1.63;1.13;;;12.30;99.90;;;12.03;70.89;96504.09;5011160;28;20923;-55
2023/03/23 03:45:19;;;;;;;1.52;1.20;;;12.40;99.90;;;12.12;70.04;96515.09;5009101;28;20017;-56
2023/03/23 03:47:45;;;;;;;2.28;1.35;;;12.40;99.90;;;12.12;69.86;96510.63;5013315;28;20508;-55
2023/03/23 03:50:11;;;;;;;2.28;1.38;;;12.40;99.90;;;12.13;69.93;96506.19;5015570;28;20393;-56
2023/03/23 03:52:38;;;;;;;2.55;1.20;;;12.50;99.90;;;12.16;69.54;96504.22;5014845;28;20132;-56
2023/03/23 03:55:06;;;;;;;1.38;0.93;;;12.50;99.90;;;12.19;69.82;96490.00;5011619;28;20274;-56
2023/03/23 03:57:32;;;;;;;3.88;0.90;;;12.50;99.90;;;12.19;69.97;96496.13;5018825;28;20029;-56
2023/03/23 03:59:58;;;;;;;1.98;1.30;;;12.50;99.90;;;12.23;69.24;96488.88;5012909;28;20199;-56
2023/03/23 04:02:24;;;;;;;3.17;1.00;;;12.50;99.90;;;12.22;69.49;96492.44;5013051;28;21226;-56
2023/03/23 04:04:52;;;;;;;2.03;1.10;;;12.60;99.90;;;12.26;70.23;96488.72;5009864;28;20474;-56
2023/03/23 04:07:18;;;;;;;2.70;0.80;;;12.60;99.90;;;12.26;68.96;96496.63;5010808;28;20563;-56
2023/03/23 04:09:48;;;;;;;1.70;1.00;;;12.60;99.90;;;12.27;71.05;96502.75;5012987;28;20060;-56
2023/03/23 04:12:15;;;;;;;1.33;0.93;;;12.60;99.90;;;12.28;69.76;96501.84;5009532;28;20057;-56
2023/03/23 04:14:41;;;;;;;1.45;1.00;;;12.60;99.90;;;12.27;70.32;96498.31;5012740;28;20030;-56
2023/03/23 04:17:08;;;;;;;2.30;0.95;;;12.70;99.90;;;12.26;71.35;96494.00;5007802;28;20029;-56
2023/03/23 04:19:36;;;;;;;1.45;0.98;;;12.60;99.90;;;12.24;71.18;96506.44;5007146;28;20036;-56
2023/03/23 04:22:03;;;;;;;2.42;1.13;;;12.60;99.90;;;12.26;70.89;96507.22;5012755;28;20082;-56
2023/03/23 04:24:31;;;;;;;1.10;0.90;;;12.60;99.90;;;12.30;70.16;96499.97;4995224;28;20470;-56
2023/03/23 04:26:56;;;;;;;2.08;1.10;;;12.60;99.90;;;12.33;69.69;96508.56;5005549;28;20037;-56
2023/03/23 04:29:22;;;;;;;2.47;1.23;;;12.70;99.90;;;12.38;69.09;96505.63;5014900;28;20026;-56
2023/03/23 04:31:50;;;;;;;2.45;1.08;;;12.70;99.90;;;12.41;68.74;96505.47;4998836;28;20049;-56
2023/03/23 04:34:16;;;;;;;2.05;1.05;;;12.80;99.90;;;12.47;68.05;96506.88;5007562;28;20045;-56
2023/03/23 04:36:42;;;;;;;2.80;1.02;;;12.80;99.90;;;12.50;68.92;96501.44;5005953;28;20079;-56
2023/03/23 04:39:09;;;;;;;2.60;1.15;;;12.80;99.90;;;12.53;68.10;96501.25;5013822;28;20049;-56
2023/03/23 04:41:39;;;;;;;2.78;0.95;;;12.90;99.90;;;12.54;67.79;96493.22;5017429;28;20069;-56
2023/03/23 04:44:06;;;;;;;2.03;1.20;;;12.90;99.90;;;12.55;68.44;96494.06;5013117;28;20029;-56
2023/03/23 04:46:32;;;;;;;1.10;0.90;;;12.90;99.90;;;12.57;67.66;96500.97;5012823;28;20095;-56
2023/03/23 04:48:58;;;;;;;1.20;0.90;;;12.90;99.90;;;12.58;68.28;96499.19;5013516;28;20065;-56
2023/03/23 04:51:28;;;;;;;1.52;1.00;;;12.90;99.90;;;12.58;66.78;96502.69;5013039;28;20036;-56
2023/03/23 04:53:54;;;;;;;2.10;1.10;;;12.90;99.90;;;12.59;67.33;96499.06;5013215;28;21523;-56
2023/03/23 04:56:20;;;;;;;1.58;1.10;;;12.90;99.80;;;12.57;69.68;96508.91;5015557;28;20040;-56
2023/03/23 04:58:46;;;;;;;1.13;1.00;;;12.90;99.90;;;12.58;68.33;96509.78;5016511;28;20026;-56
2023/03/23 05:01:17;;;;;;;1.40;0.90;;;12.90;99.90;;;12.56;68.75;96514.28;5010354;28;20044;-56
2023/03/23 05:03:43;;;;;;;3.08;1.10;;;12.90;99.90;;;12.57;69.45;96502.75;5007707;28;20360;-56
2023/03/23 05:06:09;;;;;;;1.10;0.90;;;12.90;99.90;;;12.57;68.52;96500.97;5003750;28;20076;-56
2023/03/23 05:08:38;;;;;;;3.28;1.15;;;12.90;99.90;;;12.56;68.54;96512.50;5011391;28;20042;-56
2023/03/23 05:11:05;;;;;;;1.88;1.00;;;12.90;99.90;;;12.57;67.45;96500.13;5014124;28;20021;-56
2023/03/23 05:13:32;;;;;;;1.27;0.82;;;12.90;99.80;;;12.62;66.71;96502.50;4977643;28;20026;-56
2023/03/23 05:15:58;;;;;;;2.53;1.00;;;13.00;99.70;;;12.66;66.50;96504.03;4989652;28;20033;-55
2023/03/23 05:18:24;;;;;;;2.45;0.90;;;13.00;99.70;;;12.68;67.30;96502.97;5011522;28;20042;-55
2023/03/23 05:20:52;;;;;;;3.08;1.17;;;13.00;99.90;;;12.68;67.74;96500.31;5018992;28;20048;-56
2023/03/23 05:23:20;;;;;;;2.30;1.40;;;13.00;99.90;;;12.68;66.02;96497.69;5016018;28;20296;-56
2023/03/23 05:25:57;;;;;;;1.48;0.98;;;13.00;99.50;;;12.72;65.98;96496.56;5008780;28;20540;-56
2023/03/23 05:28:22;;;;;;;2.58;0.90;;;13.10;99.50;;;12.74;65.96;96497.34;5015150;28;20099;-56
2023/03/23 05:30:49;;;;;;;1.50;0.95;;;13.10;99.50;;;12.77;65.80;96498.94;5013264;28;20290;-56
2023/03/23 05:33:14;;;;;;;2.47;1.05;;;13.10;99.40;;;12.79;65.64;96492.63;5014008;28;20029;-56
2023/03/23 05:35:41;;;;;;;1.70;1.20;;;13.10;99.50;;;12.82;65.74;96493.38;5006756;28;20045;-56
2023/03/23 05:38:07;;;;;;;1.67;1.30;;;13.10;99.40;;;12.73;64.99;96482.38;5017520;28;20245;-50
2023/03/23 05:40:32;;;;;;;2.03;0.90;;;13.20;99.30;;;12.79;65.19;96489.97;5012802;28;20164;-54
2023/03/23 05:42:58;;;;;;;1.40;0.90;;;13.20;99.30;;;12.88;64.71;96498.28;5013304;28;20393;-55
2023/03/23 05:45:26;;;;;;;1.50;1.17;;;13.20;99.20;;;12.93;63.99;96496.22;5010421;28;20060;-54
2023/03/23 05:47:52;;;;;;;1.20;0.90;;;13.20;99.00;;;12.95;64.13;96500.44;5016308;28;20087;-54
2023/03/23 05:50:18;;;;;;;2.33;1.10;;;13.30;99.20;;;12.97;64.32;96497.72;4999725;28;20202;-55
2023/03/23 05:52:44;;;;;;;2.88;1.17;;;13.30;99.10;;;12.97;64.78;96500.38;5002192;28;20564;-55
2023/03/23 05:55:11;;;;;;;1.83;1.00;;;13.30;99.20;;;12.96;64.72;96504.81;5017526;28;20430;-56
2023/03/23 05:57:37;;;;;;;2.83;1.20;;;13.30;99.20;;;12.98;65.16;96510.84;5022904;28;20034;-56
2023/03/23 06:00:28;;;;;;;1.40;0.90;;;13.30;99.30;;;13.02;64.71;96508.03;5014568;28;20484;-55
2023/03/23 06:02:54;;;;;;;1.33;1.08;;;13.30;99.10;;;13.02;64.96;96506.22;5001491;28;20468;-54
2023/03/23 06:05:20;;;;;;;1.50;1.20;;;13.40;99.10;;;13.09;64.76;96518.16;5008947;28;20349;-55
2023/03/23 06:07:46;;;;;;;2.00;1.17;;;13.40;99.30;;;13.13;64.26;96524.09;5014882;28;20029;-55
2023/03/23 06:10:11;;;;;;;1.73;1.10;;;13.40;99.10;;;13.07;64.26;96508.59;5010416;28;20049;-55
2023/03/23 06:12:39;;;;;;;2.10;1.10;;;13.50;99.10;;;13.20;64.26;96532.53;5003390;28;20037;-55
2023/03/23 06:15:06;;;;;;;1.88;1.10;;;13.50;99.10;;;13.23;63.92;96535.00;5008465;28;20198;-55
2023/03/23 06:17:33;;;;;;;2.15;1.10;;;13.50;99.00;;;13.21;62.50;96534.22;5010013;28;20033;-55
2023/03/23 06:19:59;;;;;;;2.50;1.42;;;13.60;98.60;;;13.24;63.08;96536.69;5012747;28;20072;-56
2023/03/23 06:22:26;;;;;;;1.38;1.02;;;13.60;98.70;;;13.21;62.75;96537.72;4998234;28;20018;-51
2023/03/23 06:24:52;;;;;;;2.30;1.27;;;13.60;98.70;;;13.22;64.02;96543.88;5007738;28;20026;-54
2023/03/23 06:27:17;;;;;;;1.20;0.90;;;13.60;98.80;;;13.17;63.75;96539.72;5012256;28;20067;-51
2023/03/23 06:29:43;;;;;;;1.88;1.10;;;13.50;98.90;;;13.17;64.16;96552.94;5009671;28;20029;-51
2023/03/23 06:32:12;;;;;;;2.45;1.13;;;13.50;99.10;;;13.14;64.72;96558.44;5007104;28;20034;-49
2023/03/23 06:34:38;;;;;;;1.08;0.80;;;13.50;99.20;;;13.09;65.29;96555.19;5003823;28;20504;-52
2023/03/23 06:37:05;;;;;;;1.98;1.08;;;13.40;99.30;;;13.09;66.05;96560.50;5012466;28;20375;-48
2023/03/23 06:39:30;;;;;;;1.80;1.33;;;13.50;99.50;;;13.06;66.28;96565.97;5007380;28;20041;-54
2023/03/23 06:41:59;;;;;;;2.72;1.10;;;13.40;99.60;;;13.07;66.26;96564.19;5005564;28;20034;-50
2023/03/23 06:44:25;;;;;;;1.23;0.80;;;13.40;99.70;;;13.09;66.16;96559.66;5003372;28;21744;-52
2023/03/23 06:46:51;;;;;;;1.98;1.08;;;13.40;99.60;;;13.10;66.83;96567.50;5007206;28;20030;-57
2023/03/23 06:49:16;;;;;;;2.20;1.08;;;13.50;99.80;;;13.16;67.10;96569.78;5005570;28;22428;-51
2023/03/23 06:51:42;;;;;;;2.83;1.10;;;13.50;99.90;;;13.29;68.49;96561.09;5011863;28;20049;-48
2023/03/23 06:54:08;;;;;;;2.30;1.10;;;13.70;99.90;;;13.49;66.01;96568.66;5016109;28;20025;-51
2023/03/23 06:56:34;;;;;;;2.20;1.20;;;13.80;99.90;;;13.71;65.80;96564.69;5009088;28;20021;-51
2023/03/23 06:58:59;;;;;;;2.35;1.20;;;14.00;99.70;;;13.88;62.15;96576.88;5016303;28;20025;-51
2023/03/23 07:01:27;;;;;;;3.95;1.30;;;14.30;99.10;;;14.04;61.27;96574.13;4999924;28;20544;-48
2023/03/23 07:03:55;;;;;;;2.20;1.17;;;14.40;98.60;;;14.20;61.23;96581.94;5011392;28;20270;-49
2023/03/23 07:06:21;;;;;;;2.90;1.25;;;14.50;98.40;;;14.22;60.51;96586.19;5007773;28;20060;-51
2023/03/23 07:08:47;;;;;;;5.60;1.27;;;14.50;98.00;;;14.18;60.25;96583.84;5020050;28;20062;-50
2023/03/23 07:11:13;;;;;;;2.10;1.10;;;14.50;98.00;;;14.11;60.67;96578.91;5007484;28;20033;-50
2023/03/23 07:13:38;;;;;;;1.20;1.08;;;14.40;98.10;;;14.08;61.43;96581.75;5012504;28;20272;-52
2023/03/23 07:16:06;;;;;;;2.03;1.00;;;14.40;98.40;;;14.05;62.77;96583.75;5011663;28;20045;-48
2023/03/23 07:18:32;;;;;;;2.25;1.20;;;14.40;98.70;;;14.00;63.73;96583.19;5012896;28;20034;-50
2023/03/23 07:20:58;;;;;;;2.08;1.05;;;14.30;99.00;;;13.96;64.73;96587.84;5015904;28;20565;-51
2023/03/23 07:23:24;;;;;;;2.08;1.50;;;14.30;99.30;;;13.87;63.95;96593.72;5012951;28;20030;-52
2023/03/23 07:25:49;;;;;;;2.05;0.77;;;14.20;99.10;;;13.81;64.23;96600.25;5004776;28;20037;-52
2023/03/23 07:28:16;;;;;;;1.25;1.10;;;14.10;99.10;;;13.76;64.56;96597.03;5008832;28;20057;-50
2023/03/23 07:30:42;;;;;;;3.78;1.30;;;14.10;99.20;;;13.71;63.48;96601.78;5008592;28;20089;-50
2023/03/23 07:33:08;;;;;;;4.63;1.27;;;14.10;98.90;;;13.69;64.38;96611.63;5008937;28;20025;-50
2023/03/23 07:35:36;;;;;;;3.90;1.20;;;14.10;99.30;;;13.76;65.67;96615.59;5011015;28;20061;-52
2023/03/23 07:38:03;;;;;;;2.35;1.25;;;14.10;99.30;;;13.81;64.28;96621.47;5011394;28;20251;-48
2023/03/23 07:40:33;;;;;;;2.75;1.30;;;14.20;99.20;;;13.84;63.22;96625.75;5008529;28;20025;-51
2023/03/23 07:42:59;;;;;;;2.28;1.33;;;14.20;98.80;;;13.98;63.49;96631.03;5008193;28;20025;-51
2023/03/23 07:45:25;;;;;;;2.78;1.38;;;14.30;98.90;;;14.10;62.77;96632.03;4987213;28;20575;-52
2023/03/23 07:47:51;;;;;;;1.95;1.30;;;14.40;98.80;;;14.27;63.34;96633.63;5013741;28;20030;-52
2023/03/23 07:50:17;;;;;;;2.05;1.33;;;14.60;99.10;;;14.49;60.81;96625.97;4991310;28;20037;-54
2023/03/23 07:52:43;;;;;;;4.53;1.90;;;14.80;98.40;;;14.77;60.02;96621.56;5010925;28;21288;-51
2023/03/23 07:55:17;;;;;;;5.75;1.30;;;15.10;98.40;;;15.08;59.05;96624.81;5011161;28;20408;-51
2023/03/23 07:57:49;;;;;;;4.10;1.50;;;15.40;97.80;;;15.38;57.89;96623.66;5010265;28;20040;-51
2023/03/23 08:00:19;;;;;;;16.90;2.13;;;15.60;97.60;;;15.63;56.15;96620.16;5005488;28;20159;-49
2023/03/23 08:02:46;;;;;;;21.50;3.75;;;15.80;96.90;;;15.64;56.30;96628.03;5004252;28;20072;-51
2023/03/23 08:05:13;;;;;;;3.78;1.48;;;15.90;96.90;;;15.59;56.66;96631.97;5006952;28;20619;-49
2023/03/23 08:07:40;;;;;;;5.50;1.88;;;15.90;96.90;;;15.49;58.36;96633.56;5025615;22;20056;-39
2023/03/23 08:10:11;;;;;;;6.45;1.60;;;15.80;97.30;;;15.47;58.62;96636.34;5014380;28;20026;-38
2023/03/23 08:12:38;;;;;;;3.67;2.10;;;15.80;97.30;;;15.36;59.17;96641.53;5005382;28;20343;-39
2023/03/23 08:15:06;;;;;;;5.68;3.13;;;15.80;97.50;;;15.28;59.35;96645.56;5013668;28;20025;-39
2023/03/23 08:17:34;;;;;;;3.63;2.60;;;15.70;97.50;;;15.23;59.57;96654.78;5015636;28;20041;-38
2023/03/23 08:20:00;;;;;;;3.00;1.80;;;15.70;97.80;;;15.26;60.72;96641.31;5004930;28;20036;-38
2023/03/23 08:22:28;;;;;;;4.22;1.45;;;15.60;98.20;;;15.35;61.14;96635.38;5012441;28;20025;-39
2023/03/23 08:24:54;;;;;;;3.08;1.50;;;15.70;98.20;;;15.27;61.45;96653.63;5007262;28;20072;-38
2023/03/23 08:27:20;;;;;;;2.35;1.40;;;15.70;98.30;;;15.27;61.82;96654.50;5003922;28;21016;-39
2023/03/23 08:29:46;;;;;;;2.25;1.50;;;15.70;98.40;;;15.28;64.78;96647.38;5003847;28;20496;-39
2023/03/23 08:32:12;;;;;;;4.00;1.63;;;15.70;98.80;;;15.25;62.22;96652.88;5006356;28;20037;-39
2023/03/23 08:34:38;;;;;;;3.50;2.08;;;15.70;98.40;;;15.33;63.24;96655.88;5006721;28;20136;-39
2023/03/23 08:37:04;;;;;;;2.45;1.35;;;15.70;98.80;;;15.38;63.31;96647.56;5010686;28;20124;-39
2023/03/23 08:39:31;;;;;;;3.55;1.60;;;15.80;98.80;;;15.40;63.58;96654.50;5011593;28;20044;-39
2023/03/23 08:41:56;;;;;;;1.25;1.15;;;15.80;99.00;;;15.41;65.09;96655.34;5002858;28;20044;-38
2023/03/23 08:44:22;;;;;;;4.22;1.40;;;15.80;99.20;;;15.39;64.97;96654.59;5009638;28;20370;-39
2023/03/23 08:46:49;;;;;;;5.20;1.40;;;15.80;99.20;;;15.35;65.75;96659.28;5006289;28;20057;-39
2023/03/23 08:49:15;;;;;;;2.20;1.40;;;15.70;99.40;;;15.42;65.45;96665.03;5014783;28;20034;-39
2023/03/23 08:51:41;;;;;;;4.50;1.20;;;15.70;99.50;;;15.40;64.83;96666.94;5003525;28;20438;-38
2023/03/23 08:54:07;;;;;;;2.08;1.25;;;15.70;99.40;;;15.31;65.61;96679.03;5012211;28;20059;-38
2023/03/23 08:56:33;;;;;;;2.60;1.40;;;15.70;99.60;;;15.16;68.33;96680.91;5013097;28;20401;-38
2023/03/23 08:58:59;;;;;;;3.05;1.70;;;15.60;99.90;;;15.08;68.15;96686.72;5010620;28;20508;-38
2023/03/23 09:01:26;;;;;;;1.58;1.33;;;15.50;99.90;;;15.03;69.80;96686.19;5006199;28;20068;-38
2023/03/23 09:03:52;;;;;;;3.30;1.40;;;15.40;99.90;;;14.88;69.57;96682.75;5006628;28;20128;-39
2023/03/23 09:06:17;;;;;;;2.95;1.40;;;15.30;99.90;;;14.88;68.76;96682.75;5008030;28;20021;-39
2023/03/23 09:08:44;;;;;;;3.38;1.45;;;15.30;99.90;;;14.88;70.08;96681.91;5007962;28;20426;-39
2023/03/23 09:11:11;;;;;;;1.60;1.20;;;15.20;99.90;;;14.93;69.98;96684.22;5011189;28;20029;-39
2023/03/23 09:13:38;;;;;;;3.95;1.42;;;15.30;99.90;;;14.96;70.75;96690.19;5013091;28;20037;-38
2023/03/23 09:16:06;;;;;;;2.17;1.50;;;15.30;99.90;;;14.97;70.56;96694.56;5015649;28;20021;-39
2023/03/23 09:18:33;;;;;;;2.85;1.40;;;15.30;99.90;;;14.91;70.44;96692.28;5002302;28;20500;-39
2023/03/23 09:20:59;;;;;;;2.80;1.35;;;15.30;99.90;;;14.93;69.65;96690.41;5001529;28;20037;-39
2023/03/23 09:23:25;;;;;;;1.90;1.15;;;15.30;99.90;;;15.02;69.89;96699.56;5003304;28;20401;-38
2023/03/23 09:25:51;;;;;;;3.95;1.40;;;15.40;99.90;;;15.07;68.24;96703.63;5008846;28;20120;-39
2023/03/23 09:28:17;;;;;;;1.60;1.20;;;15.50;99.90;;;15.04;68.87;96687.91;5010038;28;20043;-39
2023/03/23 09:30:45;;;;;;;2.92;1.40;;;15.50;99.90;;;15.18;70.19;96694.97;5006801;28;20556;-38
2023/03/23 09:33:11;;;;;;;1.30;1.10;;;15.50;99.90;;;15.30;68.53;96713.66;4963161;28;20029;-38
2023/03/23 09:35:38;;;;;;;2.33;1.63;;;15.60;99.90;;;15.27;68.53;96707.63;5007634;28;20036;-39
2023/03/23 09:38:05;;;;;;;2.58;1.67;;;15.70;99.90;;;15.26;66.95;96702.41;5000937;28;20077;-39
2023/03/23 09:41:15;;;;;;;1.42;1.08;;;15.60;99.90;;;15.29;65.88;96715.50;4994884;28;20507;-38
2023/03/23 09:44:22;;;;;;;2.30;1.13;;;15.70;99.50;;;15.49;66.54;96719.47;4944196;28;20481;-38
2023/03/23 09:47:17;;;;;;;2.53;1.45;;;15.90;99.80;;;15.51;65.24;96719.34;4946006;28;20175;-38
2023/03/23 09:50:10;;;;;;;1.35;1.13;;;15.90;99.50;;;15.57;65.44;96711.78;5005020;28;20029;-39
2023/03/23 09:53:08;;;;;;;5.10;1.50;;;15.90;99.70;;;15.60;65.58;96710.75;5013712;28;20513;-38
2023/03/23 09:55:35;;;;;;;3.17;1.60;;;16.10;99.60;;;15.74;65.30;96713.34;4996233;28;20508;-39
2023/03/23 09:58:27;;;;;;;6.93;1.60;;;16.20;99.60;;;15.93;63.64;96714.72;4998762;28;20030;-39
2023/03/23 10:01:08;;;;;;;7.68;1.10;;;16.40;99.50;;;16.10;63.62;96722.41;5003318;28;20026;-39
2023/03/23 10:03:43;;;;;;;2.95;1.30;;;16.60;99.10;;;16.21;62.87;96735.78;4987086;28;20175;-39
2023/03/23 10:06:12;;;;;;;2.17;1.25;;;16.70;98.80;;;16.28;63.47;96720.25;5002309;28;20048;-39
2023/03/23 10:08:52;;;;;;;1.92;1.30;;;16.80;98.60;;;16.47;61.94;96727.75;5001998;28;20043;-38
2023/03/23 10:11:45;;;;;;;3.42;1.52;;;16.80;98.70;;;16.23;62.04;96739.19;5017949;28;20297;-38
2023/03/23 10:14:40;;;;;;;3.15;1.25;;;16.80;98.40;;;16.37;63.75;96732.06;4991608;28;20565;-39
2023/03/23 10:17:56;;;;;;;3.88;1.30;;;16.90;98.80;;;16.29;63.71;96735.22;4988516;28;20052;-39
2023/03/23 10:20:30;;;;;;;2.40;1.65;;;16.90;98.50;;;16.30;62.39;96707.69;4954991;28;20731;-38
2023/03/23 10:23:20;;;;;;;2.60;1.23;;;17.00;98.50;;;16.46;62.03;96738.53;4974268;28;20037;-38
2023/03/23 10:25:59;;;;;;;2.38;1.10;;;17.00;98.50;;;16.42;62.95;96735.25;4984162;28;20037;-39
2023/03/23 10:28:44;;;;;;;1.75;1.30;;;16.90;98.50;;;16.44;61.56;96732.44;5013245;28;20038;-38
2023/03/23 10:31:24;;;;;;;2.47;1.20;;;16.90;98.60;;;16.63;62.07;96746.16;5014481;28;20033;-39
2023/03/23 10:33:55;;;;;;;2.58;1.48;;;17.00;98.80;;;16.60;61.94;96735.75;5011782;28;20112;-39